sensor_id;sensor_type;location;lat;lon;timestamp;pressure;altitude;pressure_sealevel;temperature
7389;BMP180;3735;50.136;11.062;2022-09-01T00:01:18;98573.00;;;16.00
7389;BMP180;3735;50.136;11.062;2022-09-01T00:03:50;98576.00;;;16.00
7389;BMP180;3735;50.136;11.062;2022-09-01T00:06:23;98574.00;;;15.90
7389;BMP180;3735;50.136;11.062;2022-09-01T00:08:51;98569.00;;;15.80
7389;BMP180;3735;50.136;11.062;2022-09-01T00:11:18;98578.00;;;15.80
7389;BMP180;3735;50.136;11.062;2022-09-01T00:13:44;98581.00;;;15.60
7389;BMP180;3735;50.136;11.062;2022-09-01T00:16:10;98575.00;;;15.60
7389;BMP180;3735;50.136;11.062;2022-09-01T00:18:40;98576.00;;;15.40
7389;BMP180;3735;50.136;11.062;2022-09-01T00:21:09;98580.00;;;15.30
7389;BMP180;3735;50.136;11.062;2022-09-01T00:23:35;98573.00;;;15.20
7389;BMP180;3735;50.136;11.062;2022-09-01T00:26:01;98570.00;;;15.10
7389;BMP180;3735;50.136;11.062;2022-09-01T00:28:27;98578.00;;;15.00
7389;BMP180;3735;50.136;11.062;2022-09-01T00:30:52;98584.00;;;15.00
7389;BMP180;3735;50.136;11.062;2022-09-01T00:33:18;98586.00;;;14.80
7389;BMP180;3735;50.136;11.062;2022-09-01T00:35:45;98569.00;;;14.80
7389;BMP180;3735;50.136;11.062;2022-09-01T00:38:10;98582.00;;;14.60
7389;BMP180;3735;50.136;11.062;2022-09-01T00:40:37;98579.00;;;14.60
7389;BMP180;3735;50.136;11.062;2022-09-01T00:43:35;98582.00;;;14.50
7389;BMP180;3735;50.136;11.062;2022-09-01T00:46:06;98563.00;;;14.40
7389;BMP180;3735;50.136;11.062;2022-09-01T00:48:34;98576.00;;;14.30
7389;BMP180;3735;50.136;11.062;2022-09-01T00:51:01;98572.00;;;14.20
7389;BMP180;3735;50.136;11.062;2022-09-01T00:53:28;98576.00;;;14.10
7389;BMP180;3735;50.136;11.062;2022-09-01T00:55:55;98579.00;;;14.00
7389;BMP180;3735;50.136;11.062;2022-09-01T00:58:21;98576.00;;;14.00
7389;BMP180;3735;50.136;11.062;2022-09-01T01:00:50;98574.00;;;13.90
7389;BMP180;3735;50.136;11.062;2022-09-01T01:03:17;98572.00;;;13.90
7389;BMP180;3735;50.136;11.062;2022-09-01T01:05:53;98564.00;;;13.90
7389;BMP180;3735;50.136;11.062;2022-09-01T01:08:27;98569.00;;;13.90
7389;BMP180;3735;50.136;11.062;2022-09-01T01:11:03;98567.00;;;13.80
7389;BMP180;3735;50.136;11.062;2022-09-01T01:13:29;98570.00;;;13.70
7389;BMP180;3735;50.136;11.062;2022-09-01T01:16:02;98566.00;;;13.70
7389;BMP180;3735;50.136;11.062;2022-09-01T01:18:32;98558.00;;;13.60
7389;BMP180;3735;50.136;11.062;2022-09-01T01:21:09;98567.00;;;13.60
7389;BMP180;3735;50.136;11.062;2022-09-01T01:26:45;98560.00;;;13.50
7389;BMP180;3735;50.136;11.062;2022-09-01T01:29:12;98563.00;;;13.40
7389;BMP180;3735;50.136;11.062;2022-09-01T01:31:38;98564.00;;;13.40
7389;BMP180;3735;50.136;11.062;2022-09-01T01:34:04;98560.00;;;13.40
7389;BMP180;3735;50.136;11.062;2022-09-01T01:36:37;98562.00;;;13.40
7389;BMP180;3735;50.136;11.062;2022-09-01T01:39:10;98564.00;;;13.30
7389;BMP180;3735;50.136;11.062;2022-09-01T01:41:39;98553.00;;;13.30
7389;BMP180;3735;50.136;11.062;2022-09-01T01:44:12;98565.00;;;13.20
7389;BMP180;3735;50.136;11.062;2022-09-01T01:46:47;98557.00;;;13.20
7389;BMP180;3735;50.136;11.062;2022-09-01T01:49:17;98563.00;;;13.20
7389;BMP180;3735;50.136;11.062;2022-09-01T01:51:46;98562.00;;;13.10
7389;BMP180;3735;50.136;11.062;2022-09-01T01:54:14;98556.00;;;13.10
7389;BMP180;3735;50.136;11.062;2022-09-01T01:56:40;98563.00;;;13.10
7389;BMP180;3735;50.136;11.062;2022-09-01T01:59:08;98567.00;;;13.00
7389;BMP180;3735;50.136;11.062;2022-09-01T02:01:38;98567.00;;;13.00
7389;BMP180;3735;50.136;11.062;2022-09-01T02:04:09;98564.00;;;12.90
7389;BMP180;3735;50.136;11.062;2022-09-01T02:06:37;98568.00;;;12.90
7389;BMP180;3735;50.136;11.062;2022-09-01T02:09:07;98565.00;;;12.80
7389;BMP180;3735;50.136;11.062;2022-09-01T02:11:33;98563.00;;;12.80
7389;BMP180;3735;50.136;11.062;2022-09-01T02:14:05;98566.00;;;12.70
7389;BMP180;3735;50.136;11.062;2022-09-01T02:16:33;98560.00;;;12.70
7389;BMP180;3735;50.136;11.062;2022-09-01T02:19:02;98561.00;;;12.70
7389;BMP180;3735;50.136;11.062;2022-09-01T02:21:28;98553.00;;;12.60
7389;BMP180;3735;50.136;11.062;2022-09-01T02:24:00;98552.00;;;12.50
7389;BMP180;3735;50.136;11.062;2022-09-01T02:26:37;98555.00;;;12.50
7389;BMP180;3735;50.136;11.062;2022-09-01T02:29:10;98544.00;;;12.50
7389;BMP180;3735;50.136;11.062;2022-09-01T02:31:44;98547.00;;;12.40
7389;BMP180;3735;50.136;11.062;2022-09-01T02:34:11;98544.00;;;12.40
7389;BMP180;3735;50.136;11.062;2022-09-01T02:36:45;98539.00;;;12.40
7389;BMP180;3735;50.136;11.062;2022-09-01T02:39:22;98540.00;;;12.30
7389;BMP180;3735;50.136;11.062;2022-09-01T02:41:49;98530.00;;;12.40
7389;BMP180;3735;50.136;11.062;2022-09-01T02:44:16;98540.00;;;12.30
7389;BMP180;3735;50.136;11.062;2022-09-01T02:46:48;98545.00;;;12.30
7389;BMP180;3735;50.136;11.062;2022-09-01T02:49:19;98530.00;;;12.30
7389;BMP180;3735;50.136;11.062;2022-09-01T02:51:51;98545.00;;;12.30
7389;BMP180;3735;50.136;11.062;2022-09-01T02:54:20;98545.00;;;12.30
7389;BMP180;3735;50.136;11.062;2022-09-01T02:56:50;98538.00;;;12.40
7389;BMP180;3735;50.136;11.062;2022-09-01T02:59:21;98547.00;;;12.40
7389;BMP180;3735;50.136;11.062;2022-09-01T03:01:50;98527.00;;;12.50
7389;BMP180;3735;50.136;11.062;2022-09-01T03:04:18;98547.00;;;12.50
7389;BMP180;3735;50.136;11.062;2022-09-01T03:06:44;98530.00;;;12.50
7389;BMP180;3735;50.136;11.062;2022-09-01T03:09:16;98541.00;;;12.50
7389;BMP180;3735;50.136;11.062;2022-09-01T03:11:45;98536.00;;;12.40
7389;BMP180;3735;50.136;11.062;2022-09-01T03:14:12;98510.00;;;12.50
7389;BMP180;3735;50.136;11.062;2022-09-01T03:16:39;98529.00;;;12.50
7389;BMP180;3735;50.136;11.062;2022-09-01T03:19:07;98527.00;;;12.50
7389;BMP180;3735;50.136;11.062;2022-09-01T03:21:37;98529.00;;;12.40
7389;BMP180;3735;50.136;11.062;2022-09-01T03:24:11;98526.00;;;12.30
7389;BMP180;3735;50.136;11.062;2022-09-01T03:26:41;98522.00;;;12.30
7389;BMP180;3735;50.136;11.062;2022-09-01T03:29:08;98515.00;;;12.30
7389;BMP180;3735;50.136;11.062;2022-09-01T03:31:35;98529.00;;;12.20
7389;BMP180;3735;50.136;11.062;2022-09-01T03:34:02;98522.00;;;12.20
7389;BMP180;3735;50.136;11.062;2022-09-01T03:36:31;98526.00;;;12.20
7389;BMP180;3735;50.136;11.062;2022-09-01T03:38:58;98525.00;;;12.10
7389;BMP180;3735;50.136;11.062;2022-09-01T03:41:27;98517.00;;;12.10
7389;BMP180;3735;50.136;11.062;2022-09-01T03:43:54;98523.00;;;12.00
7389;BMP180;3735;50.136;11.062;2022-09-01T03:46:24;98526.00;;;11.90
7389;BMP180;3735;50.136;11.062;2022-09-01T03:48:55;98523.00;;;11.90
7389;BMP180;3735;50.136;11.062;2022-09-01T03:51:24;98520.00;;;11.90
7389;BMP180;3735;50.136;11.062;2022-09-01T03:53:53;98522.00;;;11.80
7389;BMP180;3735;50.136;11.062;2022-09-01T03:56:20;98523.00;;;11.80
7389;BMP180;3735;50.136;11.062;2022-09-01T03:58:47;98515.00;;;11.80
7389;BMP180;3735;50.136;11.062;2022-09-01T04:01:14;98520.00;;;11.70
7389;BMP180;3735;50.136;11.062;2022-09-01T04:03:40;98514.00;;;11.70
7389;BMP180;3735;50.136;11.062;2022-09-01T04:06:08;98517.00;;;11.60
7389;BMP180;3735;50.136;11.062;2022-09-01T04:08:35;98521.00;;;11.60
7389;BMP180;3735;50.136;11.062;2022-09-01T04:11:15;98527.00;;;11.60
7389;BMP180;3735;50.136;11.062;2022-09-01T04:13:45;98523.00;;;11.60
7389;BMP180;3735;50.136;11.062;2022-09-01T04:16:38;98530.00;;;11.60
7389;BMP180;3735;50.136;11.062;2022-09-01T04:19:24;98524.00;;;11.50
7389;BMP180;3735;50.136;11.062;2022-09-01T04:22:01;98527.00;;;11.50
7389;BMP180;3735;50.136;11.062;2022-09-01T04:24:30;98524.00;;;11.50
7389;BMP180;3735;50.136;11.062;2022-09-01T04:26:58;98518.00;;;11.40
7389;BMP180;3735;50.136;11.062;2022-09-01T04:29:27;98519.00;;;11.40
7389;BMP180;3735;50.136;11.062;2022-09-01T04:32:00;98525.00;;;11.50
7389;BMP180;3735;50.136;11.062;2022-09-01T04:34:31;98526.00;;;11.40
7389;BMP180;3735;50.136;11.062;2022-09-01T04:37:16;98525.00;;;11.50
7389;BMP180;3735;50.136;11.062;2022-09-01T04:39:49;98528.00;;;11.50
7389;BMP180;3735;50.136;11.062;2022-09-01T04:42:17;98526.00;;;11.50
7389;BMP180;3735;50.136;11.062;2022-09-01T04:44:45;98526.00;;;11.50
7389;BMP180;3735;50.136;11.062;2022-09-01T04:47:11;98521.00;;;11.50
7389;BMP180;3735;50.136;11.062;2022-09-01T04:49:42;98531.00;;;11.60
7389;BMP180;3735;50.136;11.062;2022-09-01T04:52:13;98531.00;;;11.60
7389;BMP180;3735;50.136;11.062;2022-09-01T04:54:39;98531.00;;;11.60
7389;BMP180;3735;50.136;11.062;2022-09-01T04:57:05;98536.00;;;11.60
7389;BMP180;3735;50.136;11.062;2022-09-01T04:59:32;98525.00;;;11.60
7389;BMP180;3735;50.136;11.062;2022-09-01T05:01:59;98539.00;;;11.60
7389;BMP180;3735;50.136;11.062;2022-09-01T05:04:29;98534.00;;;11.70
7389;BMP180;3735;50.136;11.062;2022-09-01T05:07:00;98530.00;;;11.80
7389;BMP180;3735;50.136;11.062;2022-09-01T05:09:29;98531.00;;;11.90
7389;BMP180;3735;50.136;11.062;2022-09-01T05:11:57;98529.00;;;12.00
7389;BMP180;3735;50.136;11.062;2022-09-01T05:14:40;98525.00;;;12.30
7389;BMP180;3735;50.136;11.062;2022-09-01T05:17:09;98529.00;;;12.80
7389;BMP180;3735;50.136;11.062;2022-09-01T05:19:42;98521.00;;;13.70
7389;BMP180;3735;50.136;11.062;2022-09-01T05:22:10;98524.00;;;14.80
7389;BMP180;3735;50.136;11.062;2022-09-01T05:24:37;98522.00;;;15.90
7389;BMP180;3735;50.136;11.062;2022-09-01T05:27:04;98520.00;;;16.50
7389;BMP180;3735;50.136;11.062;2022-09-01T05:29:30;98509.00;;;17.10
7389;BMP180;3735;50.136;11.062;2022-09-01T05:31:57;98516.00;;;18.10
7389;BMP180;3735;50.136;11.062;2022-09-01T05:34:24;98520.00;;;18.70
7389;BMP180;3735;50.136;11.062;2022-09-01T05:36:58;98513.00;;;19.20
7389;BMP180;3735;50.136;11.062;2022-09-01T05:39:26;98515.00;;;19.90
7389;BMP180;3735;50.136;11.062;2022-09-01T05:41:52;98519.00;;;20.10
7389;BMP180;3735;50.136;11.062;2022-09-01T05:44:21;98521.00;;;20.70
7389;BMP180;3735;50.136;11.062;2022-09-01T05:46:48;98511.00;;;21.20
7389;BMP180;3735;50.136;11.062;2022-09-01T05:49:15;98514.00;;;21.90
7389;BMP180;3735;50.136;11.062;2022-09-01T05:51:47;98518.00;;;22.40
7389;BMP180;3735;50.136;11.062;2022-09-01T05:54:16;98520.00;;;22.20
7389;BMP180;3735;50.136;11.062;2022-09-01T05:56:43;98525.00;;;21.60
7389;BMP180;3735;50.136;11.062;2022-09-01T05:59:12;98517.00;;;20.90
7389;BMP180;3735;50.136;11.062;2022-09-01T06:01:40;98517.00;;;20.40
7389;BMP180;3735;50.136;11.062;2022-09-01T06:04:08;98536.00;;;19.80
7389;BMP180;3735;50.136;11.062;2022-09-01T06:06:46;98521.00;;;19.60
7389;BMP180;3735;50.136;11.062;2022-09-01T06:09:15;98529.00;;;19.20
7389;BMP180;3735;50.136;11.062;2022-09-01T06:11:44;98519.00;;;19.20
7389;BMP180;3735;50.136;11.062;2022-09-01T06:14:12;98523.00;;;19.90
7389;BMP180;3735;50.136;11.062;2022-09-01T06:16:40;98522.00;;;21.20
7389;BMP180;3735;50.136;11.062;2022-09-01T06:19:07;98519.00;;;22.60
7389;BMP180;3735;50.136;11.062;2022-09-01T06:21:33;98518.00;;;24.00
7389;BMP180;3735;50.136;11.062;2022-09-01T06:23:59;98523.00;;;24.60
7389;BMP180;3735;50.136;11.062;2022-09-01T06:26:31;98523.00;;;24.50
7389;BMP180;3735;50.136;11.062;2022-09-01T06:29:03;98525.00;;;24.40
7389;BMP180;3735;50.136;11.062;2022-09-01T06:31:33;98523.00;;;24.70
7389;BMP180;3735;50.136;11.062;2022-09-01T06:34:05;98522.00;;;24.90
7389;BMP180;3735;50.136;11.062;2022-09-01T06:36:36;98524.00;;;25.20
7389;BMP180;3735;50.136;11.062;2022-09-01T06:39:05;98531.00;;;25.40
7389;BMP180;3735;50.136;11.062;2022-09-01T06:41:31;98538.00;;;24.80
7389;BMP180;3735;50.136;11.062;2022-09-01T06:43:57;98530.00;;;25.20
7389;BMP180;3735;50.136;11.062;2022-09-01T06:46:26;98527.00;;;25.70
7389;BMP180;3735;50.136;11.062;2022-09-01T06:48:54;98525.00;;;25.90
7389;BMP180;3735;50.136;11.062;2022-09-01T06:51:25;98534.00;;;24.90
7389;BMP180;3735;50.136;11.062;2022-09-01T06:53:54;98536.00;;;25.50
7389;BMP180;3735;50.136;11.062;2022-09-01T06:56:28;98536.00;;;25.60
7389;BMP180;3735;50.136;11.062;2022-09-01T06:58:56;98545.00;;;25.50
7389;BMP180;3735;50.136;11.062;2022-09-01T07:01:24;98553.00;;;25.60
7389;BMP180;3735;50.136;11.062;2022-09-01T07:03:54;98551.00;;;26.10
7389;BMP180;3735;50.136;11.062;2022-09-01T07:06:23;98556.00;;;26.50
7389;BMP180;3735;50.136;11.062;2022-09-01T07:08:57;98555.00;;;26.90
7389;BMP180;3735;50.136;11.062;2022-09-01T07:11:30;98552.00;;;27.60
7389;BMP180;3735;50.136;11.062;2022-09-01T07:14:04;98560.00;;;28.20
7389;BMP180;3735;50.136;11.062;2022-09-01T07:16:35;98553.00;;;27.70
7389;BMP180;3735;50.136;11.062;2022-09-01T07:19:04;98552.00;;;27.90
7389;BMP180;3735;50.136;11.062;2022-09-01T07:21:31;98560.00;;;28.00
7389;BMP180;3735;50.136;11.062;2022-09-01T07:23:59;98554.00;;;28.20
7389;BMP180;3735;50.136;11.062;2022-09-01T07:26:29;98557.00;;;28.00
7389;BMP180;3735;50.136;11.062;2022-09-01T07:28:56;98558.00;;;27.80
7389;BMP180;3735;50.136;11.062;2022-09-01T07:31:28;98563.00;;;28.40
7389;BMP180;3735;50.136;11.062;2022-09-01T07:34:00;98565.00;;;29.40
7389;BMP180;3735;50.136;11.062;2022-09-01T07:36:26;98563.00;;;29.50
7389;BMP180;3735;50.136;11.062;2022-09-01T07:38:52;98565.00;;;29.70
7389;BMP180;3735;50.136;11.062;2022-09-01T07:41:25;98570.00;;;30.30
7389;BMP180;3735;50.136;11.062;2022-09-01T07:43:51;98568.00;;;29.70
7389;BMP180;3735;50.136;11.062;2022-09-01T07:46:23;98568.00;;;29.70
7389;BMP180;3735;50.136;11.062;2022-09-01T07:48:53;98574.00;;;29.10
7389;BMP180;3735;50.136;11.062;2022-09-01T07:51:22;98572.00;;;29.40
7389;BMP180;3735;50.136;11.062;2022-09-01T07:53:48;98575.00;;;29.50
7389;BMP180;3735;50.136;11.062;2022-09-01T07:56:18;98577.00;;;29.20
7389;BMP180;3735;50.136;11.062;2022-09-01T07:58:47;98576.00;;;29.40
7389;BMP180;3735;50.136;11.062;2022-09-01T08:01:20;98586.00;;;29.90
7389;BMP180;3735;50.136;11.062;2022-09-01T08:03:51;98581.00;;;29.20
7389;BMP180;3735;50.136;11.062;2022-09-01T08:06:20;98580.00;;;29.00
7389;BMP180;3735;50.136;11.062;2022-09-01T08:08:48;98587.00;;;29.40
7389;BMP180;3735;50.136;11.062;2022-09-01T08:11:21;98583.00;;;29.30
7389;BMP180;3735;50.136;11.062;2022-09-01T08:13:52;98590.00;;;29.70
7389;BMP180;3735;50.136;11.062;2022-09-01T08:16:19;98585.00;;;29.50
7389;BMP180;3735;50.136;11.062;2022-09-01T08:18:47;98587.00;;;29.60
7389;BMP180;3735;50.136;11.062;2022-09-01T08:21:14;98595.00;;;30.10
7389;BMP180;3735;50.136;11.062;2022-09-01T08:23:40;98589.00;;;30.10
7389;BMP180;3735;50.136;11.062;2022-09-01T08:26:16;98586.00;;;30.30
7389;BMP180;3735;50.136;11.062;2022-09-01T08:28:43;98593.00;;;30.20
7389;BMP180;3735;50.136;11.062;2022-09-01T08:31:11;98599.00;;;28.70
7389;BMP180;3735;50.136;11.062;2022-09-01T08:33:40;98603.00;;;27.20
7389;BMP180;3735;50.136;11.062;2022-09-01T08:36:09;98597.00;;;28.20
7389;BMP180;3735;50.136;11.062;2022-09-01T08:38:36;98591.00;;;29.40
7389;BMP180;3735;50.136;11.062;2022-09-01T08:41:04;98589.00;;;29.40
7389;BMP180;3735;50.136;11.062;2022-09-01T08:43:51;98584.00;;;30.00
7389;BMP180;3735;50.136;11.062;2022-09-01T08:46:32;98590.00;;;30.40
7389;BMP180;3735;50.136;11.062;2022-09-01T08:49:06;98593.00;;;30.20
7389;BMP180;3735;50.136;11.062;2022-09-01T08:52:07;98591.00;;;30.70
7389;BMP180;3735;50.136;11.062;2022-09-01T08:54:52;98589.00;;;31.00
7389;BMP180;3735;50.136;11.062;2022-09-01T08:57:33;98582.00;;;31.40
7389;BMP180;3735;50.136;11.062;2022-09-01T09:00:00;98570.00;;;31.30
7389;BMP180;3735;50.136;11.062;2022-09-01T09:05:42;98587.00;;;31.10
7389;BMP180;3735;50.136;11.062;2022-09-01T09:09:14;98593.00;;;29.50
7389;BMP180;3735;50.136;11.062;2022-09-01T09:11:54;98597.00;;;28.70
7389;BMP180;3735;50.136;11.062;2022-09-01T09:17:29;98585.00;;;28.10
7389;BMP180;3735;50.136;11.062;2022-09-01T09:19:56;98594.00;;;27.60
7389;BMP180;3735;50.136;11.062;2022-09-01T09:22:22;98600.00;;;27.20
7389;BMP180;3735;50.136;11.062;2022-09-01T09:25:20;98589.00;;;27.70
7389;BMP180;3735;50.136;11.062;2022-09-01T09:27:50;98577.00;;;29.10
7389;BMP180;3735;50.136;11.062;2022-09-01T09:30:26;98572.00;;;30.80
7389;BMP180;3735;50.136;11.062;2022-09-01T09:33:05;98567.00;;;30.20
7389;BMP180;3735;50.136;11.062;2022-09-01T09:35:44;98571.00;;;31.20
7389;BMP180;3735;50.136;11.062;2022-09-01T09:38:14;98577.00;;;30.90
7389;BMP180;3735;50.136;11.062;2022-09-01T09:41:18;98576.00;;;31.30
7389;BMP180;3735;50.136;11.062;2022-09-01T09:46:45;98581.00;;;32.40
7389;BMP180;3735;50.136;11.062;2022-09-01T09:49:31;98579.00;;;32.10
7389;BMP180;3735;50.136;11.062;2022-09-01T09:54:33;98584.00;;;33.90
7389;BMP180;3735;50.136;11.062;2022-09-01T10:02:38;98582.00;;;31.00
7389;BMP180;3735;50.136;11.062;2022-09-01T10:05:37;98579.00;;;31.30
7389;BMP180;3735;50.136;11.062;2022-09-01T10:08:08;98578.00;;;33.00
7389;BMP180;3735;50.136;11.062;2022-09-01T10:10:45;98569.00;;;33.00
7389;BMP180;3735;50.136;11.062;2022-09-01T10:13:16;98574.00;;;33.50
7389;BMP180;3735;50.136;11.062;2022-09-01T10:15:50;98570.00;;;34.00
7389;BMP180;3735;50.136;11.062;2022-09-01T10:18:21;98570.00;;;35.20
7389;BMP180;3735;50.136;11.062;2022-09-01T10:21:00;98573.00;;;35.70
7389;BMP180;3735;50.136;11.062;2022-09-01T10:23:33;98576.00;;;34.50
7389;BMP180;3735;50.136;11.062;2022-09-01T10:26:40;98572.00;;;34.90
7389;BMP180;3735;50.136;11.062;2022-09-01T10:29:20;98590.00;;;34.10
7389;BMP180;3735;50.136;11.062;2022-09-01T10:31:49;98591.00;;;32.00
7389;BMP180;3735;50.136;11.062;2022-09-01T10:34:17;98593.00;;;29.30
7389;BMP180;3735;50.136;11.062;2022-09-01T10:36:46;98594.00;;;28.00
7389;BMP180;3735;50.136;11.062;2022-09-01T10:39:16;98587.00;;;27.80
7389;BMP180;3735;50.136;11.062;2022-09-01T10:44:28;98597.00;;;26.10
7389;BMP180;3735;50.136;11.062;2022-09-01T10:47:12;98591.00;;;26.20
7389;BMP180;3735;50.136;11.062;2022-09-01T11:06:07;98583.00;;;24.60
7389;BMP180;3735;50.136;11.062;2022-09-01T11:11:24;98580.00;;;25.00
7389;BMP180;3735;50.136;11.062;2022-09-01T11:13:53;98581.00;;;25.30
7389;BMP180;3735;50.136;11.062;2022-09-01T11:16:33;98577.00;;;25.70
7389;BMP180;3735;50.136;11.062;2022-09-01T11:22:18;98580.00;;;26.30
7389;BMP180;3735;50.136;11.062;2022-09-01T11:33:19;98569.00;;;27.10
7389;BMP180;3735;50.136;11.062;2022-09-01T11:41:27;98562.00;;;29.40
7389;BMP180;3735;50.136;11.062;2022-09-01T11:44:01;98562.00;;;29.10
7389;BMP180;3735;50.136;11.062;2022-09-01T11:46:33;98561.00;;;28.60
7389;BMP180;3735;50.136;11.062;2022-09-01T11:49:09;98571.00;;;27.90
7389;BMP180;3735;50.136;11.062;2022-09-01T11:51:46;98582.00;;;27.60
7389;BMP180;3735;50.136;11.062;2022-09-01T11:54:14;98565.00;;;27.70
7389;BMP180;3735;50.136;11.062;2022-09-01T11:56:40;98564.00;;;27.50
7389;BMP180;3735;50.136;11.062;2022-09-01T11:59:06;98570.00;;;27.90
7389;BMP180;3735;50.136;11.062;2022-09-01T12:01:39;98569.00;;;27.90
7389;BMP180;3735;50.136;11.062;2022-09-01T12:04:22;98567.00;;;27.20
7389;BMP180;3735;50.136;11.062;2022-09-01T12:09:37;98559.00;;;27.10
7389;BMP180;3735;50.136;11.062;2022-09-01T12:12:06;98560.00;;;27.00
7389;BMP180;3735;50.136;11.062;2022-09-01T12:14:33;98553.00;;;26.90
7389;BMP180;3735;50.136;11.062;2022-09-01T12:17:04;98550.00;;;27.00
7389;BMP180;3735;50.136;11.062;2022-09-01T12:19:34;98551.00;;;26.90
7389;BMP180;3735;50.136;11.062;2022-09-01T12:22:13;98546.00;;;27.20
7389;BMP180;3735;50.136;11.062;2022-09-01T12:24:49;98530.00;;;27.40
7389;BMP180;3735;50.136;11.062;2022-09-01T12:27:16;98531.00;;;27.00
7389;BMP180;3735;50.136;11.062;2022-09-01T12:29:42;98538.00;;;27.20
7389;BMP180;3735;50.136;11.062;2022-09-01T12:32:09;98508.00;;;26.90
7389;BMP180;3735;50.136;11.062;2022-09-01T12:35:13;98536.00;;;26.50
7389;BMP180;3735;50.136;11.062;2022-09-01T12:37:32;98529.00;;;26.30
7389;BMP180;3735;50.136;11.062;2022-09-01T12:39:58;98520.00;;;26.70
7389;BMP180;3735;50.136;11.062;2022-09-01T12:42:29;98520.00;;;26.80
7389;BMP180;3735;50.136;11.062;2022-09-01T12:45:06;98520.00;;;26.90
7389;BMP180;3735;50.136;11.062;2022-09-01T12:52:51;98517.00;;;26.20
7389;BMP180;3735;50.136;11.062;2022-09-01T12:55:39;98516.00;;;25.80
7389;BMP180;3735;50.136;11.062;2022-09-01T12:58:08;98520.00;;;25.40
7389;BMP180;3735;50.136;11.062;2022-09-01T13:00:57;98512.00;;;25.30
7389;BMP180;3735;50.136;11.062;2022-09-01T13:03:24;98511.00;;;25.50
7389;BMP180;3735;50.136;11.062;2022-09-01T13:05:58;98509.00;;;25.80
7389;BMP180;3735;50.136;11.062;2022-09-01T13:08:32;98506.00;;;25.90
7389;BMP180;3735;50.136;11.062;2022-09-01T13:11:09;98502.00;;;26.60
7389;BMP180;3735;50.136;11.062;2022-09-01T13:13:35;98498.00;;;28.40
7389;BMP180;3735;50.136;11.062;2022-09-01T13:16:03;98488.00;;;30.00
7389;BMP180;3735;50.136;11.062;2022-09-01T13:18:34;98485.00;;;31.30
7389;BMP180;3735;50.136;11.062;2022-09-01T13:21:00;98482.00;;;32.20
7389;BMP180;3735;50.136;11.062;2022-09-01T13:23:26;98480.00;;;33.30
7389;BMP180;3735;50.136;11.062;2022-09-01T13:25:52;98478.00;;;32.40
7389;BMP180;3735;50.136;11.062;2022-09-01T13:28:19;98482.00;;;31.00
7389;BMP180;3735;50.136;11.062;2022-09-01T13:30:55;98480.00;;;31.50
7389;BMP180;3735;50.136;11.062;2022-09-01T13:33:24;98483.00;;;31.90
7389;BMP180;3735;50.136;11.062;2022-09-01T13:35:51;98490.00;;;32.40
7389;BMP180;3735;50.136;11.062;2022-09-01T13:38:18;98492.00;;;33.00
7389;BMP180;3735;50.136;11.062;2022-09-01T13:40:45;98493.00;;;33.00
7389;BMP180;3735;50.136;11.062;2022-09-01T13:43:19;98494.00;;;33.00
7389;BMP180;3735;50.136;11.062;2022-09-01T13:45:46;98498.00;;;31.30
7389;BMP180;3735;50.136;11.062;2022-09-01T13:48:13;98496.00;;;29.70
7389;BMP180;3735;50.136;11.062;2022-09-01T13:50:40;98495.00;;;28.30
7389;BMP180;3735;50.136;11.062;2022-09-01T13:53:07;98494.00;;;27.60
7389;BMP180;3735;50.136;11.062;2022-09-01T13:55:38;98490.00;;;28.70
7389;BMP180;3735;50.136;11.062;2022-09-01T13:58:04;98491.00;;;28.60
7389;BMP180;3735;50.136;11.062;2022-09-01T14:00:37;98484.00;;;27.30
7389;BMP180;3735;50.136;11.062;2022-09-01T14:03:08;98490.00;;;27.00
7389;BMP180;3735;50.136;11.062;2022-09-01T14:05:39;98496.00;;;26.90
7389;BMP180;3735;50.136;11.062;2022-09-01T14:08:07;98492.00;;;26.40
7389;BMP180;3735;50.136;11.062;2022-09-01T14:10:43;98487.00;;;25.20
7389;BMP180;3735;50.136;11.062;2022-09-01T14:13:11;98494.00;;;25.60
7389;BMP180;3735;50.136;11.062;2022-09-01T14:15:38;98477.00;;;25.40
7389;BMP180;3735;50.136;11.062;2022-09-01T14:18:05;98490.00;;;25.70
7389;BMP180;3735;50.136;11.062;2022-09-01T14:20:36;98484.00;;;26.20
7389;BMP180;3735;50.136;11.062;2022-09-01T14:23:07;98497.00;;;27.50
7389;BMP180;3735;50.136;11.062;2022-09-01T14:25:34;98489.00;;;27.40
7389;BMP180;3735;50.136;11.062;2022-09-01T14:28:00;98483.00;;;27.80
7389;BMP180;3735;50.136;11.062;2022-09-01T14:30:30;98482.00;;;28.50
7389;BMP180;3735;50.136;11.062;2022-09-01T14:32:57;98490.00;;;29.00
7389;BMP180;3735;50.136;11.062;2022-09-01T14:35:24;98482.00;;;29.20
7389;BMP180;3735;50.136;11.062;2022-09-01T14:37:52;98491.00;;;29.30
7389;BMP180;3735;50.136;11.062;2022-09-01T14:40:21;98484.00;;;29.30
7389;BMP180;3735;50.136;11.062;2022-09-01T14:42:50;98476.00;;;29.40
7389;BMP180;3735;50.136;11.062;2022-09-01T14:45:21;98475.00;;;30.30
7389;BMP180;3735;50.136;11.062;2022-09-01T14:47:49;98468.00;;;30.10
7389;BMP180;3735;50.136;11.062;2022-09-01T14:50:17;98474.00;;;30.70
7389;BMP180;3735;50.136;11.062;2022-09-01T14:52:46;98469.00;;;31.40
7389;BMP180;3735;50.136;11.062;2022-09-01T14:55:12;98471.00;;;31.50
7389;BMP180;3735;50.136;11.062;2022-09-01T14:57:38;98471.00;;;30.60
7389;BMP180;3735;50.136;11.062;2022-09-01T15:00:09;98474.00;;;29.00
7389;BMP180;3735;50.136;11.062;2022-09-01T15:02:39;98471.00;;;28.50
7389;BMP180;3735;50.136;11.062;2022-09-01T15:05:06;98474.00;;;28.00
7389;BMP180;3735;50.136;11.062;2022-09-01T15:07:33;98476.00;;;27.00
7389;BMP180;3735;50.136;11.062;2022-09-01T15:09:59;98477.00;;;26.30
7389;BMP180;3735;50.136;11.062;2022-09-01T15:12:25;98475.00;;;25.70
7389;BMP180;3735;50.136;11.062;2022-09-01T15:14:58;98475.00;;;25.70
7389;BMP180;3735;50.136;11.062;2022-09-01T15:17:26;98472.00;;;25.60
7389;BMP180;3735;50.136;11.062;2022-09-01T15:19:53;98464.00;;;26.50
7389;BMP180;3735;50.136;11.062;2022-09-01T15:22:19;98470.00;;;26.70
7389;BMP180;3735;50.136;11.062;2022-09-01T15:24:45;98455.00;;;26.50
7389;BMP180;3735;50.136;11.062;2022-09-01T15:27:11;98475.00;;;25.90
7389;BMP180;3735;50.136;11.062;2022-09-01T15:29:37;98469.00;;;25.40
7389;BMP180;3735;50.136;11.062;2022-09-01T15:32:11;98471.00;;;24.90
7389;BMP180;3735;50.136;11.062;2022-09-01T15:34:38;98469.00;;;24.40
7389;BMP180;3735;50.136;11.062;2022-09-01T15:37:04;98462.00;;;24.20
7389;BMP180;3735;50.136;11.062;2022-09-01T15:39:31;98465.00;;;24.00
7389;BMP180;3735;50.136;11.062;2022-09-01T15:41:57;98465.00;;;23.90
7389;BMP180;3735;50.136;11.062;2022-09-01T15:44:23;98476.00;;;23.60
7389;BMP180;3735;50.136;11.062;2022-09-01T15:46:48;98470.00;;;23.50
7389;BMP180;3735;50.136;11.062;2022-09-01T15:49:15;98462.00;;;23.40